createdAt,value
2024-04-02T00:01:10.658Z,13.62
2024-04-02T00:06:25.673Z,13.61
2024-04-02T00:11:28.579Z,13.61
2024-04-02T00:16:31.688Z,13.61
2024-04-02T00:21:35.934Z,13.60
2024-04-02T00:26:38.820Z,13.58
2024-04-02T00:31:41.836Z,13.57
2024-04-02T00:36:44.633Z,13.57
2024-04-02T00:41:47.648Z,13.56
2024-04-02T00:46:50.648Z,13.54
2024-04-02T00:51:54.271Z,13.49
2024-04-02T00:56:57.173Z,13.45
2024-04-02T01:02:00.083Z,13.41
2024-04-02T01:07:03.705Z,13.39
2024-04-02T01:12:08.708Z,13.38
2024-04-02T01:17:11.699Z,13.36
2024-04-02T01:22:14.665Z,13.34
2024-04-02T01:27:17.679Z,13.31
2024-04-02T01:32:20.577Z,13.30
2024-04-02T01:37:24.079Z,13.29
2024-04-02T01:42:27.012Z,13.26
2024-04-02T01:47:30.025Z,13.23
2024-04-02T01:52:33.011Z,13.21
2024-04-02T01:57:35.913Z,13.17
2024-04-02T02:02:38.826Z,13.14
2024-04-02T02:07:41.726Z,13.11
2024-04-02T02:12:44.633Z,13.08
2024-04-02T02:17:49.245Z,13.05
2024-04-02T02:22:52.079Z,13.02
2024-04-02T02:27:54.985Z,13.00
2024-04-02T02:32:57.787Z,12.98
2024-04-02T02:38:00.592Z,12.95
2024-04-02T02:43:03.590Z,12.91
2024-04-02T02:48:06.823Z,12.88
2024-04-02T02:53:09.777Z,12.86
2024-04-02T02:58:13.473Z,12.85
2024-04-02T03:03:16.343Z,12.84
2024-04-02T03:08:19.269Z,12.83
2024-04-02T03:18:28.941Z,12.80
2024-04-02T03:23:31.848Z,12.76
2024-04-02T03:28:35.166Z,12.70
2024-04-02T03:33:38.069Z,12.58
2024-04-02T03:38:40.965Z,12.37
2024-04-02T03:43:44.964Z,12.24
2024-04-02T03:48:50.216Z,12.15
2024-04-02T03:53:53.322Z,12.08
2024-04-02T03:58:56.270Z,12.01
2024-04-02T04:03:59.999Z,11.96
2024-04-02T04:09:02.920Z,11.93
2024-04-02T04:14:05.907Z,11.91
2024-04-02T04:19:08.917Z,11.89
2024-04-02T04:24:11.921Z,11.85
2024-04-02T04:29:14.828Z,11.83
2024-04-02T04:34:18.680Z,11.82
2024-04-02T04:39:21.569Z,11.80
2024-04-02T04:44:24.460Z,11.80
2024-04-02T04:49:27.566Z,11.79
2024-04-02T04:54:30.474Z,11.77
2024-04-02T04:59:33.375Z,11.75
2024-04-02T05:04:36.278Z,11.72
2024-04-02T05:09:39.187Z,11.66
2024-04-02T05:14:42.202Z,11.62
2024-04-02T05:19:45.809Z,11.59
2024-04-02T05:24:48.715Z,11.56
2024-04-02T05:29:51.621Z,11.49
2024-04-02T05:34:54.529Z,11.42
2024-04-02T05:39:57.531Z,11.36
2024-04-02T05:45:01.498Z,11.30
2024-04-02T05:50:05.506Z,11.27
2024-04-02T05:55:08.503Z,11.25
2024-04-02T06:00:12.667Z,11.22
2024-04-02T06:05:17.566Z,11.21
2024-04-02T06:10:23.117Z,11.20
2024-04-02T06:15:26.671Z,11.17
2024-04-02T06:20:29.783Z,11.13
2024-04-02T06:25:32.685Z,11.12
2024-04-02T06:30:35.696Z,11.13
2024-04-02T06:35:39.012Z,11.12
2024-04-02T06:40:43.260Z,11.09
2024-04-02T06:45:59.870Z,11.10
2024-04-02T06:51:04.525Z,11.12
2024-04-02T06:56:10.485Z,11.13
2024-04-02T07:01:14.397Z,11.15
2024-04-02T07:06:17.734Z,11.17
2024-04-02T07:11:20.650Z,11.22
2024-04-02T07:16:23.748Z,11.26
2024-04-02T07:21:26.888Z,11.32
2024-04-02T07:26:29.903Z,11.37
2024-04-02T07:31:33.073Z,11.42
2024-04-02T07:36:36.702Z,11.48
2024-04-02T07:41:39.801Z,11.51
2024-04-02T07:46:42.826Z,11.50
2024-04-02T07:51:45.935Z,11.46
2024-04-02T07:56:49.344Z,11.45
2024-04-02T08:01:52.954Z,11.42
2024-04-02T08:06:56.241Z,11.39
2024-04-02T08:11:59.178Z,11.41
2024-04-02T08:17:03.814Z,11.47
2024-04-02T08:22:07.803Z,11.60
2024-04-02T08:27:10.863Z,11.74
2024-04-02T08:32:14.445Z,11.93
2024-04-02T08:37:20.923Z,12.11
2024-04-02T08:42:27.978Z,12.31
2024-04-02T08:47:33.566Z,12.51
2024-04-02T08:52:36.642Z,12.66
2024-04-02T08:57:41.671Z,12.78
2024-04-02T09:02:48.142Z,12.82
2024-04-02T09:07:51.380Z,12.75
2024-04-02T09:12:54.415Z,12.62
2024-04-02T09:17:58.643Z,12.57
2024-04-02T09:23:02.842Z,12.60
2024-04-02T09:28:06.602Z,12.63
2024-04-02T09:33:12.279Z,12.69
2024-04-02T09:38:18.142Z,12.76
2024-04-02T09:43:22.046Z,12.88
2024-04-02T09:48:27.026Z,12.98
2024-04-02T09:53:30.245Z,13.09
2024-04-02T09:58:33.141Z,13.21
2024-04-02T10:03:39.548Z,13.34
2024-04-02T10:08:42.737Z,13.45
2024-04-02T10:13:48.877Z,13.39
2024-04-02T10:18:57.560Z,13.19
2024-04-02T10:24:01.826Z,13.04
2024-04-02T10:29:05.116Z,12.93
2024-04-02T10:34:12.817Z,12.84
2024-04-02T10:39:16.041Z,12.80
2024-04-02T10:44:19.564Z,12.86
2024-04-02T10:49:22.540Z,12.95
2024-04-02T10:54:25.879Z,13.03
2024-04-02T10:59:29.086Z,12.97
2024-04-02T11:04:32.204Z,12.89
2024-04-02T11:09:36.135Z,12.83
2024-04-02T11:14:40.042Z,12.77
2024-04-02T11:19:43.270Z,12.66
2024-04-02T11:25:01.434Z,12.64
2024-04-02T11:30:05.564Z,12.78
2024-04-02T11:35:12.362Z,13.01
2024-04-02T11:40:17.836Z,13.10
2024-04-02T11:45:22.983Z,13.13
2024-04-02T11:50:26.115Z,13.15
2024-04-02T11:55:29.198Z,13.19
2024-04-02T12:00:32.303Z,13.34
2024-04-02T12:05:37.969Z,13.55
2024-04-02T12:10:40.994Z,13.82
2024-04-02T12:15:44.090Z,14.12
2024-04-02T12:20:47.202Z,14.33
2024-04-02T12:25:50.272Z,14.56
2024-04-02T12:30:59.462Z,14.68
2024-04-02T12:36:03.762Z,14.68
2024-04-02T12:41:07.331Z,14.68
2024-04-02T12:46:10.737Z,14.55
2024-04-02T12:51:14.454Z,14.26
2024-04-02T12:56:17.457Z,13.98
2024-04-02T13:01:20.879Z,13.78
2024-04-02T13:06:23.879Z,13.61
2024-04-02T13:11:26.889Z,13.59
2024-04-02T13:16:33.768Z,13.59
2024-04-02T13:21:38.544Z,13.53
2024-04-02T13:26:42.531Z,13.45
2024-04-02T13:31:45.469Z,13.35
2024-04-02T13:36:48.370Z,13.28
2024-04-02T13:41:51.485Z,13.23
2024-04-02T13:46:54.612Z,13.32
2024-04-02T13:51:58.838Z,13.47
2024-04-02T13:57:01.844Z,13.47
2024-04-02T14:02:05.332Z,13.41
2024-04-02T14:07:08.568Z,13.33
2024-04-02T14:12:11.676Z,13.24
2024-04-02T14:17:14.791Z,13.21
2024-04-02T14:22:17.797Z,13.23
2024-04-02T14:27:20.816Z,13.23
2024-04-02T14:32:23.816Z,13.18
2024-04-02T14:37:26.726Z,13.14
2024-04-02T14:42:29.726Z,13.07
2024-04-02T14:47:33.237Z,13.03
2024-04-02T14:52:36.444Z,12.94
2024-04-02T14:57:40.807Z,12.92
2024-04-02T15:02:44.628Z,12.96
2024-04-02T15:07:47.829Z,12.96
2024-04-02T15:12:50.861Z,12.92
2024-04-02T15:17:54.150Z,12.88
2024-04-02T15:23:01.589Z,12.77
2024-04-02T15:28:05.486Z,12.70
2024-04-02T15:33:08.797Z,12.64
2024-04-02T15:38:12.035Z,12.63
2024-04-02T15:43:15.121Z,12.56
2024-04-02T15:48:18.136Z,12.55
2024-04-02T15:53:21.236Z,12.52
2024-04-02T15:58:25.783Z,12.47
2024-04-02T16:03:28.933Z,12.44
2024-04-02T16:08:33.243Z,12.42
2024-04-02T16:13:38.240Z,12.38
2024-04-02T16:18:45.584Z,12.35
2024-04-02T16:23:48.754Z,12.30
2024-04-02T16:28:52.007Z,12.25
2024-04-02T16:33:54.907Z,12.18
2024-04-02T16:38:58.259Z,12.11
2024-04-02T16:44:01.232Z,12.06
2024-04-02T16:49:04.447Z,11.95
2024-04-02T16:54:07.556Z,11.83
2024-04-02T16:59:11.783Z,11.73
2024-04-02T17:04:17.789Z,11.64
2024-04-02T17:09:21.137Z,11.57
2024-04-02T17:14:24.084Z,11.49
2024-04-02T17:19:27.570Z,11.41
2024-04-02T17:24:30.391Z,11.35
2024-04-02T17:29:33.616Z,11.31
2024-04-02T17:34:36.738Z,11.26
2024-04-02T17:39:39.934Z,11.23
2024-04-02T17:44:42.948Z,11.19
2024-04-02T17:49:45.952Z,11.15
2024-04-02T17:54:51.122Z,11.10
2024-04-02T17:59:54.230Z,11.06
2024-04-02T18:04:59.280Z,11.04
2024-04-02T18:10:02.490Z,11.05
2024-04-02T18:15:08.545Z,11.09
2024-04-02T18:20:12.055Z,11.12
2024-04-02T18:25:17.756Z,11.15
2024-04-02T18:30:20.790Z,11.20
2024-04-02T18:35:23.768Z,11.27
2024-04-02T18:40:34.573Z,11.31
2024-04-02T18:45:39.207Z,11.36
2024-04-02T18:50:50.705Z,11.39
2024-04-02T18:56:07.011Z,11.42
2024-04-02T19:01:10.743Z,11.46
2024-04-02T19:06:13.755Z,11.51
2024-04-02T19:11:16.970Z,11.54
2024-04-02T19:16:19.971Z,11.57
2024-04-02T19:21:23.592Z,11.58
2024-04-02T19:26:26.599Z,11.58
2024-04-02T19:31:29.509Z,11.57
2024-04-02T19:36:32.710Z,11.52
2024-04-02T19:41:36.327Z,11.46
2024-04-02T19:46:40.669Z,11.41
2024-04-02T19:51:44.297Z,11.28
2024-04-02T19:56:47.943Z,11.20
2024-04-02T20:01:51.333Z,11.12
2024-04-02T20:06:54.889Z,11.08
2024-04-02T20:11:57.981Z,11.02
2024-04-02T20:17:01.064Z,10.87
2024-04-02T20:22:04.589Z,10.71
2024-04-02T20:27:07.597Z,10.55
2024-04-02T20:32:10.608Z,10.45
2024-04-02T20:37:13.602Z,10.36
2024-04-02T20:42:16.653Z,10.30
2024-04-02T20:47:20.753Z,10.22
2024-04-02T20:52:23.651Z,10.20
2024-04-02T20:57:26.863Z,10.16
2024-04-02T21:02:29.918Z,10.14
2024-04-02T21:07:32.795Z,10.04
2024-04-02T21:12:36.637Z,9.92
2024-04-02T21:17:40.123Z,9.81
2024-04-02T21:22:43.140Z,9.74
2024-04-02T21:27:46.443Z,9.82
2024-04-02T21:32:49.442Z,9.92
2024-04-02T21:42:55.353Z,10.02
2024-04-02T21:48:02.966Z,10.00
2024-04-02T21:53:06.188Z,10.01
2024-04-02T21:58:09.701Z,9.97
2024-04-02T22:03:13.678Z,9.95
2024-04-02T22:08:17.456Z,9.96
2024-04-02T22:13:21.181Z,9.99
2024-04-02T22:18:24.843Z,10.00
2024-04-02T22:23:27.810Z,9.98
2024-04-02T22:28:30.923Z,9.93
2024-04-02T22:33:34.025Z,9.91
2024-04-02T22:38:37.059Z,9.86
2024-04-02T22:43:40.139Z,9.84
2024-04-02T22:48:43.157Z,9.74
2024-04-02T22:53:46.062Z,9.64
2024-04-02T22:58:48.846Z,9.50
2024-04-02T23:03:52.134Z,9.36
2024-04-02T23:08:55.072Z,9.18
2024-04-02T23:13:57.974Z,9.06
2024-04-02T23:19:00.883Z,8.95
2024-04-02T23:24:04.324Z,8.81
2024-04-02T23:29:07.300Z,8.72
2024-04-02T23:34:10.309Z,8.69
2024-04-02T23:39:13.532Z,8.61
2024-04-02T23:44:16.423Z,8.57
2024-04-02T23:49:19.436Z,8.60
2024-04-02T23:54:22.431Z,8.61
2024-04-02T23:59:25.349Z,8.62
